sensor_id;sensor_type;location;lat;lon;timestamp;pressure;altitude;pressure_sealevel;temperature;humidity
9969;BME280;5025;48.890;9.278;2023-01-28T00:01:32;99417.72;;;0.96;76.52
9969;BME280;5025;48.890;9.278;2023-01-28T00:03:57;99417.72;;;0.96;76.58
9969;BME280;5025;48.890;9.278;2023-01-28T00:06:22;99415.06;;;0.96;76.52
9969;BME280;5025;48.890;9.278;2023-01-28T00:08:47;99415.75;;;0.98;76.37
9969;BME280;5025;48.890;9.278;2023-01-28T00:11:13;99414.91;;;0.97;76.43
9969;BME280;5025;48.890;9.278;2023-01-28T00:13:38;99418.25;;;0.99;76.74
9969;BME280;5025;48.890;9.278;2023-01-28T00:16:05;99424.41;;;1.00;76.39
9969;BME280;5025;48.890;9.278;2023-01-28T00:18:35;99419.09;;;1.00;76.41
9969;BME280;5025;48.890;9.278;2023-01-28T00:21:07;99419.91;;;1.00;76.49
9969;BME280;5025;48.890;9.278;2023-01-28T00:23:35;99429.72;;;1.00;76.27
9969;BME280;5025;48.890;9.278;2023-01-28T00:26:03;99422.72;;;0.99;76.24
9969;BME280;5025;48.890;9.278;2023-01-28T00:28:29;99420.78;;;1.01;76.48
9969;BME280;5025;48.890;9.278;2023-01-28T00:30:55;99424.41;;;1.00;76.36
9969;BME280;5025;48.890;9.278;2023-01-28T00:33:21;99419.09;;;1.00;76.49
9969;BME280;5025;48.890;9.278;2023-01-28T00:35:46;99421.38;;;0.95;76.53
9969;BME280;5025;48.890;9.278;2023-01-28T00:38:12;99412.41;;;0.96;76.50
9969;BME280;5025;48.890;9.278;2023-01-28T00:40:37;99406.09;;;0.97;76.52
9969;BME280;5025;48.890;9.278;2023-01-28T00:43:02;99406.78;;;0.99;76.57
9969;BME280;5025;48.890;9.278;2023-01-28T00:45:28;99399.66;;;0.99;76.44
9969;BME280;5025;48.890;9.278;2023-01-28T00:47:53;99400.47;;;1.00;76.56
9969;BME280;5025;48.890;9.278;2023-01-28T00:50:19;99411.78;;;1.02;76.57
9969;BME280;5025;48.890;9.278;2023-01-28T00:52:46;99405.63;;;1.01;76.53
9969;BME280;5025;48.890;9.278;2023-01-28T00:55:11;99405.63;;;1.01;76.55
9969;BME280;5025;48.890;9.278;2023-01-28T00:57:36;99407.47;;;1.01;76.36
9969;BME280;5025;48.890;9.278;2023-01-28T01:00:02;99402.97;;;1.01;76.44
9969;BME280;5025;48.890;9.278;2023-01-28T01:02:28;99404.81;;;1.01;76.41
9969;BME280;5025;48.890;9.278;2023-01-28T01:04:53;99402.16;;;1.01;76.47
9969;BME280;5025;48.890;9.278;2023-01-28T01:07:26;99401.44;;;0.99;76.29
9969;BME280;5025;48.890;9.278;2023-01-28T01:10:12;99406.47;;;1.02;76.56
9969;BME280;5025;48.890;9.278;2023-01-28T01:12:38;99405.13;;;0.98;76.41
9969;BME280;5025;48.890;9.278;2023-01-28T01:15:04;99414.06;;;0.97;76.54
9969;BME280;5025;48.890;9.278;2023-01-28T01:17:33;99416.59;;;0.98;76.71
9969;BME280;5025;48.890;9.278;2023-01-28T01:19:58;99418.25;;;0.99;76.65
9969;BME280;5025;48.890;9.278;2023-01-28T01:22:24;99420.78;;;1.01;76.46
9969;BME280;5025;48.890;9.278;2023-01-28T01:24:49;99419.09;;;1.00;76.45
9969;BME280;5025;48.890;9.278;2023-01-28T01:27:14;99418.13;;;1.01;76.77
9969;BME280;5025;48.890;9.278;2023-01-28T01:29:40;99417.09;;;1.02;76.68
9969;BME280;5025;48.890;9.278;2023-01-28T01:32:05;99415.47;;;1.01;76.68
9969;BME280;5025;48.890;9.278;2023-01-28T01:34:30;99421.06;;;0.98;76.76
9969;BME280;5025;48.890;9.278;2023-01-28T01:36:55;99418.25;;;0.99;76.74
9969;BME280;5025;48.890;9.278;2023-01-28T01:39:21;99423.44;;;1.01;76.63
9969;BME280;5025;48.890;9.278;2023-01-28T01:41:46;99428.03;;;0.99;76.66
9969;BME280;5025;48.890;9.278;2023-01-28T01:47:15;99427.75;;;1.02;76.87
9969;BME280;5025;48.890;9.278;2023-01-28T01:49:42;99433.06;;;1.02;76.87
9969;BME280;5025;48.890;9.278;2023-01-28T01:52:12;99428.59;;;1.02;76.52
9969;BME280;5025;48.890;9.278;2023-01-28T01:54:41;99425.09;;;1.02;76.94
9969;BME280;5025;48.890;9.278;2023-01-28T01:57:10;99426.78;;;1.03;76.87
9969;BME280;5025;48.890;9.278;2023-01-28T01:59:39;99418.25;;;0.99;76.80
9969;BME280;5025;48.890;9.278;2023-01-28T02:02:06;99424.09;;;1.03;76.70
9969;BME280;5025;48.890;9.278;2023-01-28T02:04:38;99427.75;;;1.02;76.85
9969;BME280;5025;48.890;9.278;2023-01-28T02:07:04;99419.09;;;1.00;76.89
9969;BME280;5025;48.890;9.278;2023-01-28T02:09:32;99430.56;;;1.00;77.01
9969;BME280;5025;48.890;9.278;2023-01-28T02:12:02;99425.22;;;1.00;76.94
9969;BME280;5025;48.890;9.278;2023-01-28T02:14:31;99423.44;;;1.01;77.04
9969;BME280;5025;48.890;9.278;2023-01-28T02:17:00;99426.91;;;1.01;77.13
9969;BME280;5025;48.890;9.278;2023-01-28T02:19:31;99426.78;;;1.03;77.21
9969;BME280;5025;48.890;9.278;2023-01-28T02:22:07;99424.94;;;1.03;77.00
9969;BME280;5025;48.890;9.278;2023-01-28T02:30:28;99442.56;;;1.04;77.08
9969;BME280;5025;48.890;9.278;2023-01-28T02:33:03;99438.94;;;1.05;77.10
9969;BME280;5025;48.890;9.278;2023-01-28T02:38:00;99429.94;;;1.06;77.15
9969;BME280;5025;48.890;9.278;2023-01-28T02:40:30;99430.09;;;1.05;77.01
9969;BME280;5025;48.890;9.278;2023-01-28T02:42:58;99431.94;;;1.04;77.22
9969;BME280;5025;48.890;9.278;2023-01-28T02:45:26;99440.75;;;1.05;77.07
9969;BME280;5025;48.890;9.278;2023-01-28T02:48:12;99439.25;;;1.02;77.20
9969;BME280;5025;48.890;9.278;2023-01-28T02:50:52;99439.25;;;1.02;77.21
9969;BME280;5025;48.890;9.278;2023-01-28T02:53:29;99441.03;;;1.02;77.24
9969;BME280;5025;48.890;9.278;2023-01-28T02:58:57;99446.81;;;0.97;77.35
9969;BME280;5025;48.890;9.278;2023-01-28T03:01:32;99438.84;;;0.97;77.48
9969;BME280;5025;48.890;9.278;2023-01-28T03:04:07;99451.31;;;0.97;77.55
9969;BME280;5025;48.890;9.278;2023-01-28T03:06:38;99450.19;;;0.99;77.48
9969;BME280;5025;48.890;9.278;2023-01-28T03:09:07;99449.31;;;0.99;77.52
9969;BME280;5025;48.890;9.278;2023-01-28T03:11:58;99447.66;;;0.98;77.50
9969;BME280;5025;48.890;9.278;2023-01-28T03:14:50;99446.97;;;0.96;77.44
9969;BME280;5025;48.890;9.278;2023-01-28T03:20:34;99450.19;;;0.99;77.59
9969;BME280;5025;48.890;9.278;2023-01-28T03:23:25;99454.63;;;0.99;77.61
9969;BME280;5025;48.890;9.278;2023-01-28T03:26:11;99452.84;;;0.99;77.80
9969;BME280;5025;48.890;9.278;2023-01-28T03:29:03;99449.16;;;1.00;77.74
9969;BME280;5025;48.890;9.278;2023-01-28T03:31:49;99448.34;;;1.00;77.96
9969;BME280;5025;48.890;9.278;2023-01-28T03:34:33;99447.53;;;0.99;77.81
9969;BME280;5025;48.890;9.278;2023-01-28T03:37:17;99447.06;;;1.04;77.76
9969;BME280;5025;48.890;9.278;2023-01-28T03:39:42;99450.69;;;1.03;77.84
9969;BME280;5025;48.890;9.278;2023-01-28T03:42:10;99454.19;;;1.03;77.93
9969;BME280;5025;48.890;9.278;2023-01-28T03:44:36;99460.50;;;1.02;77.88
9969;BME280;5025;48.890;9.278;2023-01-28T03:47:24;99460.66;;;1.01;78.01
9969;BME280;5025;48.890;9.278;2023-01-28T03:49:52;99459.81;;;1.00;78.00
9969;BME280;5025;48.890;9.278;2023-01-28T03:52:22;99466.97;;;1.00;78.10
9969;BME280;5025;48.890;9.278;2023-01-28T03:54:48;99470.44;;;1.00;78.38
9969;BME280;5025;48.890;9.278;2023-01-28T03:57:15;99466.00;;;1.01;78.30
9969;BME280;5025;48.890;9.278;2023-01-28T03:59:40;99464.97;;;1.02;78.27
9969;BME280;5025;48.890;9.278;2023-01-28T04:02:06;99466.81;;;1.01;78.10
9969;BME280;5025;48.890;9.278;2023-01-28T04:04:32;99472.13;;;1.01;78.28
9969;BME280;5025;48.890;9.278;2023-01-28T04:06:58;99460.50;;;1.02;78.27
9969;BME280;5025;48.890;9.278;2023-01-28T04:09:23;99458.69;;;1.03;78.25
9969;BME280;5025;48.890;9.278;2023-01-28T04:11:49;99463.03;;;1.04;78.30
9969;BME280;5025;48.890;9.278;2023-01-28T04:14:16;99461.19;;;1.04;78.39
9969;BME280;5025;48.890;9.278;2023-01-28T04:16:41;99468.34;;;1.04;78.43
9969;BME280;5025;48.890;9.278;2023-01-28T04:19:08;99457.72;;;1.04;78.42
9969;BME280;5025;48.890;9.278;2023-01-28T04:21:33;99468.34;;;1.04;78.47
9969;BME280;5025;48.890;9.278;2023-01-28T04:23:59;99475.63;;;1.02;78.52
9969;BME280;5025;48.890;9.278;2023-01-28T04:26:24;99474.13;;;0.99;78.52
9969;BME280;5025;48.890;9.278;2023-01-28T04:28:49;99473.97;;;1.01;78.61
9969;BME280;5025;48.890;9.278;2023-01-28T04:31:14;99476.78;;;0.99;78.61
9969;BME280;5025;48.890;9.278;2023-01-28T04:33:40;99484.59;;;1.01;78.55
9969;BME280;5025;48.890;9.278;2023-01-28T04:36:05;99484.59;;;1.01;78.69
9969;BME280;5025;48.890;9.278;2023-01-28T04:38:30;99490.59;;;1.03;78.83
9969;BME280;5025;48.890;9.278;2023-01-28T04:40:56;99486.41;;;1.00;78.89
9969;BME280;5025;48.890;9.278;2023-01-28T04:43:21;99489.91;;;1.01;78.99
9969;BME280;5025;48.890;9.278;2023-01-28T04:45:47;99501.91;;;1.05;78.84
9969;BME280;5025;48.890;9.278;2023-01-28T04:48:13;99502.78;;;1.05;78.94
9969;BME280;5025;48.890;9.278;2023-01-28T04:50:40;99498.28;;;1.06;78.94
9969;BME280;5025;48.890;9.278;2023-01-28T04:53:06;99499.97;;;1.07;79.01
9969;BME280;5025;48.890;9.278;2023-01-28T04:55:31;99494.66;;;1.07;79.00
9969;BME280;5025;48.890;9.278;2023-01-28T04:57:57;99497.31;;;1.07;79.03
9969;BME280;5025;48.890;9.278;2023-01-28T05:00:22;99499.97;;;1.07;79.17
9969;BME280;5025;48.890;9.278;2023-01-28T05:02:47;99504.13;;;1.10;79.06
9969;BME280;5025;48.890;9.278;2023-01-28T05:05:16;99509.59;;;1.08;79.14
9969;BME280;5025;48.890;9.278;2023-01-28T05:07:41;99506.94;;;1.08;79.18
9969;BME280;5025;48.890;9.278;2023-01-28T05:10:07;99514.75;;;1.10;79.15
9969;BME280;5025;48.890;9.278;2023-01-28T05:12:33;99502.63;;;1.07;79.04
9969;BME280;5025;48.890;9.278;2023-01-28T05:14:59;99507.66;;;1.10;79.27
9969;BME280;5025;48.890;9.278;2023-01-28T05:17:28;99505.59;;;1.04;79.36
9969;BME280;5025;48.890;9.278;2023-01-28T05:19:53;99503.59;;;1.06;79.36
9969;BME280;5025;48.890;9.278;2023-01-28T05:22:19;99502.78;;;1.05;79.45
9969;BME280;5025;48.890;9.278;2023-01-28T05:24:44;99501.91;;;1.05;79.46
9969;BME280;5025;48.890;9.278;2023-01-28T05:27:09;99508.09;;;1.05;79.36
9969;BME280;5025;48.890;9.278;2023-01-28T05:29:35;99507.09;;;1.06;79.50
9969;BME280;5025;48.890;9.278;2023-01-28T05:32:00;99508.91;;;1.06;79.54
9969;BME280;5025;48.890;9.278;2023-01-28T05:34:26;99507.78;;;1.09;79.69
9969;BME280;5025;48.890;9.278;2023-01-28T05:36:51;99504.97;;;1.10;79.46
9969;BME280;5025;48.890;9.278;2023-01-28T05:39:16;99503.31;;;1.09;79.44
9969;BME280;5025;48.890;9.278;2023-01-28T05:41:41;99506.94;;;1.08;79.07
9969;BME280;5025;48.890;9.278;2023-01-28T05:44:07;99502.63;;;1.07;79.50
9969;BME280;5025;48.890;9.278;2023-01-28T05:46:32;99506.25;;;1.06;79.65
9969;BME280;5025;48.890;9.278;2023-01-28T05:48:57;99502.91;;;1.04;79.74
9969;BME280;5025;48.890;9.278;2023-01-28T05:51:22;99513.56;;;1.04;79.68
9969;BME280;5025;48.890;9.278;2023-01-28T05:53:48;99519.19;;;1.01;79.77
9969;BME280;5025;48.890;9.278;2023-01-28T05:56:13;99502.50;;;0.99;79.69
9969;BME280;5025;48.890;9.278;2023-01-28T05:58:38;99506.47;;;0.95;79.90
9969;BME280;5025;48.890;9.278;2023-01-28T06:01:04;99498.66;;;0.93;79.84
9969;BME280;5025;48.890;9.278;2023-01-28T06:03:29;99501.84;;;0.97;80.02
9969;BME280;5025;48.890;9.278;2023-01-28T06:05:54;99511.66;;;0.96;80.09
9969;BME280;5025;48.890;9.278;2023-01-28T06:08:20;99504.50;;;0.97;79.92
9969;BME280;5025;48.890;9.278;2023-01-28T06:10:45;99514.16;;;0.98;80.13
9969;BME280;5025;48.890;9.278;2023-01-28T06:13:11;99518.47;;;0.99;80.05
9969;BME280;5025;48.890;9.278;2023-01-28T06:15:36;99515.81;;;0.99;80.34
9969;BME280;5025;48.890;9.278;2023-01-28T06:18:02;99527.44;;;0.98;80.26
9969;BME280;5025;48.890;9.278;2023-01-28T06:20:27;99533.31;;;1.01;80.28
9969;BME280;5025;48.890;9.278;2023-01-28T06:22:52;99533.44;;;1.00;80.46
9969;BME280;5025;48.890;9.278;2023-01-28T06:25:18;99539.06;;;0.97;80.55
9969;BME280;5025;48.890;9.278;2023-01-28T06:27:44;99542.41;;;0.99;80.57
9969;BME280;5025;48.890;9.278;2023-01-28T06:30:10;99552.06;;;1.00;80.46
9969;BME280;5025;48.890;9.278;2023-01-28T06:32:36;99558.38;;;0.99;80.44
9969;BME280;5025;48.890;9.278;2023-01-28T06:35:01;99569.00;;;0.99;80.50
9969;BME280;5025;48.890;9.278;2023-01-28T06:37:26;99556.00;;;0.96;80.52
9969;BME280;5025;48.890;9.278;2023-01-28T06:39:52;99563.97;;;0.96;80.67
9969;BME280;5025;48.890;9.278;2023-01-28T06:42:17;99574.31;;;0.99;80.77
9969;BME280;5025;48.890;9.278;2023-01-28T06:44:42;99572.66;;;0.98;80.74
9969;BME280;5025;48.890;9.278;2023-01-28T06:47:07;99574.16;;;1.00;80.93
9969;BME280;5025;48.890;9.278;2023-01-28T06:49:35;99570.53;;;1.01;80.96
9969;BME280;5025;48.890;9.278;2023-01-28T06:52:00;99581.84;;;1.03;80.86
9969;BME280;5025;48.890;9.278;2023-01-28T06:54:25;99579.03;;;1.05;80.96
9969;BME280;5025;48.890;9.278;2023-01-28T06:56:50;99580.06;;;1.04;81.08
9969;BME280;5025;48.890;9.278;2023-01-28T06:59:16;99587.03;;;1.05;80.87
9969;BME280;5025;48.890;9.278;2023-01-28T07:01:41;99582.56;;;1.05;81.10
9969;BME280;5025;48.890;9.278;2023-01-28T07:04:06;99580.88;;;1.04;80.84
9969;BME280;5025;48.890;9.278;2023-01-28T07:06:32;99591.53;;;1.04;80.93
9969;BME280;5025;48.890;9.278;2023-01-28T07:08:58;99587.03;;;1.05;81.12
9969;BME280;5025;48.890;9.278;2023-01-28T07:11:23;99584.38;;;1.05;81.07
9969;BME280;5025;48.890;9.278;2023-01-28T07:13:48;99589.53;;;1.06;81.17
9969;BME280;5025;48.890;9.278;2023-01-28T07:16:13;99586.34;;;1.03;81.16
9969;BME280;5025;48.890;9.278;2023-01-28T07:18:39;99599.34;;;1.06;81.49
9969;BME280;5025;48.890;9.278;2023-01-28T07:21:04;99601.88;;;1.07;81.13
9969;BME280;5025;48.890;9.278;2023-01-28T07:23:29;99599.06;;;1.09;81.36
9969;BME280;5025;48.890;9.278;2023-01-28T07:26:00;99599.59;;;1.13;81.32
9969;BME280;5025;48.890;9.278;2023-01-28T07:28:25;99596.78;;;1.14;81.37
9969;BME280;5025;48.890;9.278;2023-01-28T07:30:50;99603.09;;;1.13;81.38
9969;BME280;5025;48.890;9.278;2023-01-28T07:33:16;99606.44;;;1.15;81.49
9969;BME280;5025;48.890;9.278;2023-01-28T07:35:42;99606.44;;;1.15;81.29
9969;BME280;5025;48.890;9.278;2023-01-28T07:38:08;99609.25;;;1.14;81.31
9969;BME280;5025;48.890;9.278;2023-01-28T07:40:33;99601.28;;;1.14;81.35
9969;BME280;5025;48.890;9.278;2023-01-28T07:42:58;99605.63;;;1.15;81.47
9969;BME280;5025;48.890;9.278;2023-01-28T07:45:25;99603.78;;;1.15;81.65
9969;BME280;5025;48.890;9.278;2023-01-28T07:47:55;99612.44;;;1.17;81.64
9969;BME280;5025;48.890;9.278;2023-01-28T07:50:21;99611.63;;;1.17;81.61
9969;BME280;5025;48.890;9.278;2023-01-28T07:52:46;99618.63;;;1.18;81.63
9969;BME280;5025;48.890;9.278;2023-01-28T07:55:11;99618.47;;;1.19;81.60
9969;BME280;5025;48.890;9.278;2023-01-28T07:57:48;99618.34;;;1.21;81.68
9969;BME280;5025;48.890;9.278;2023-01-28T08:00:14;99620.13;;;1.20;81.64
9969;BME280;5025;48.890;9.278;2023-01-28T08:02:39;99621.81;;;1.21;81.88
9969;BME280;5025;48.890;9.278;2023-01-28T08:05:05;99624.34;;;1.23;82.01
9969;BME280;5025;48.890;9.278;2023-01-28T08:07:30;99626.84;;;1.24;82.04
9969;BME280;5025;48.890;9.278;2023-01-28T08:09:56;99624.88;;;1.27;82.09
9969;BME280;5025;48.890;9.278;2023-01-28T08:12:21;99621.22;;;1.28;81.96
9969;BME280;5025;48.890;9.278;2023-01-28T08:14:46;99635.22;;;1.30;82.15
9969;BME280;5025;48.890;9.278;2023-01-28T08:17:12;99633.25;;;1.32;82.09
9969;BME280;5025;48.890;9.278;2023-01-28T08:19:37;99630.41;;;1.33;82.31
9969;BME280;5025;48.890;9.278;2023-01-28T08:22:02;99634.63;;;1.36;82.21
9969;BME280;5025;48.890;9.278;2023-01-28T08:24:27;99630.97;;;1.37;82.26
9969;BME280;5025;48.890;9.278;2023-01-28T08:26:52;99643.28;;;1.38;82.33
9969;BME280;5025;48.890;9.278;2023-01-28T08:29:18;99645.66;;;1.41;82.35
9969;BME280;5025;48.890;9.278;2023-01-28T08:31:43;99638.38;;;1.43;82.36
9969;BME280;5025;48.890;9.278;2023-01-28T08:34:08;99635.56;;;1.45;82.35
9969;BME280;5025;48.890;9.278;2023-01-28T08:36:34;99642.53;;;1.46;82.48
9969;BME280;5025;48.890;9.278;2023-01-28T08:38:59;99642.53;;;1.46;82.60
9969;BME280;5025;48.890;9.278;2023-01-28T08:41:24;99643.41;;;1.46;82.57
9969;BME280;5025;48.890;9.278;2023-01-28T08:43:49;99643.09;;;1.49;82.59
9969;BME280;5025;48.890;9.278;2023-01-28T08:46:15;99633.44;;;1.48;82.66
9969;BME280;5025;48.890;9.278;2023-01-28T08:48:41;99637.47;;;1.52;82.69
9969;BME280;5025;48.890;9.278;2023-01-28T08:51:06;99639.13;;;1.53;82.67
9969;BME280;5025;48.890;9.278;2023-01-28T08:53:32;99636.31;;;1.55;82.76
9969;BME280;5025;48.890;9.278;2023-01-28T08:55:57;99640.53;;;1.57;82.78
9969;BME280;5025;48.890;9.278;2023-01-28T08:58:23;99636.59;;;1.61;82.84
9969;BME280;5025;48.890;9.278;2023-01-28T09:00:48;99638.78;;;1.66;82.80
9969;BME280;5025;48.890;9.278;2023-01-28T09:03:14;99640.59;;;1.66;82.53
9969;BME280;5025;48.890;9.278;2023-01-28T09:05:40;99637.78;;;1.67;82.73
9969;BME280;5025;48.890;9.278;2023-01-28T09:08:09;99640.16;;;1.70;82.75
9969;BME280;5025;48.890;9.278;2023-01-28T09:10:35;99647.16;;;1.71;82.78
9969;BME280;5025;48.890;9.278;2023-01-28T09:13:14;99653.88;;;1.75;82.74
9969;BME280;5025;48.890;9.278;2023-01-28T09:15:40;99658.34;;;1.75;82.75
9969;BME280;5025;48.890;9.278;2023-01-28T09:18:05;99651.72;;;1.79;82.74
9969;BME280;5025;48.890;9.278;2023-01-28T09:20:31;99662.09;;;1.82;82.62
9969;BME280;5025;48.890;9.278;2023-01-28T09:22:57;99661.78;;;1.85;82.93
9969;BME280;5025;48.890;9.278;2023-01-28T09:25:23;99666.13;;;1.86;82.96
9969;BME280;5025;48.890;9.278;2023-01-28T09:27:48;99668.50;;;1.89;82.55
9969;BME280;5025;48.890;9.278;2023-01-28T09:30:14;99671.84;;;1.91;82.95
9969;BME280;5025;48.890;9.278;2023-01-28T09:32:39;99676.19;;;1.92;82.97
9969;BME280;5025;48.890;9.278;2023-01-28T09:35:05;99667.19;;;1.93;82.86
9969;BME280;5025;48.890;9.278;2023-01-28T09:37:30;99670.56;;;1.95;82.87
9969;BME280;5025;48.890;9.278;2023-01-28T09:39:55;99683.56;;;1.99;83.07
9969;BME280;5025;48.890;9.278;2023-01-28T09:45:11;99685.94;;;2.02;82.86
9969;BME280;5025;48.890;9.278;2023-01-28T09:47:41;99684.94;;;2.03;82.79
9969;BME280;5025;48.890;9.278;2023-01-28T09:50:19;99689.28;;;2.04;82.77
9969;BME280;5025;48.890;9.278;2023-01-28T09:52:47;99689.28;;;2.04;82.65
9969;BME280;5025;48.890;9.278;2023-01-28T09:55:28;99700.75;;;2.04;82.80
9969;BME280;5025;48.890;9.278;2023-01-28T09:57:55;99690.25;;;2.03;82.73
9969;BME280;5025;48.890;9.278;2023-01-28T10:00:23;99695.44;;;2.04;82.78
9969;BME280;5025;48.890;9.278;2023-01-28T10:03:23;99699.94;;;2.04;82.79
9969;BME280;5025;48.890;9.278;2023-01-28T10:11:02;99699.25;;;2.02;82.72
9969;BME280;5025;48.890;9.278;2023-01-28T10:16:28;99690.03;;;1.96;82.75
9969;BME280;5025;48.890;9.278;2023-01-28T10:19:06;99684.56;;;1.97;82.82
9969;BME280;5025;48.890;9.278;2023-01-28T10:21:40;99685.69;;;1.95;82.75
9969;BME280;5025;48.890;9.278;2023-01-28T10:24:16;99676.34;;;1.91;82.85
9969;BME280;5025;48.890;9.278;2023-01-28T10:26:43;99678.13;;;1.90;83.00
9969;BME280;5025;48.890;9.278;2023-01-28T10:29:15;99676.72;;;1.96;82.89
9969;BME280;5025;48.890;9.278;2023-01-28T10:32:03;99681.06;;;1.97;82.81
9969;BME280;5025;48.890;9.278;2023-01-28T10:34:30;99678.41;;;1.97;82.77
9969;BME280;5025;48.890;9.278;2023-01-28T10:36:56;99677.25;;;2.00;82.91
9969;BME280;5025;48.890;9.278;2023-01-28T10:39:23;99671.75;;;2.01;82.76
9969;BME280;5025;48.890;9.278;2023-01-28T10:41:50;99664.47;;;2.03;82.81
9969;BME280;5025;48.890;9.278;2023-01-28T10:44:19;99667.97;;;2.04;82.78
9969;BME280;5025;48.890;9.278;2023-01-28T10:46:47;99665.97;;;2.06;82.74
9969;BME280;5025;48.890;9.278;2023-01-28T10:49:17;99666.38;;;2.11;82.73
9969;BME280;5025;48.890;9.278;2023-01-28T10:51:43;99669.72;;;2.13;82.63
9969;BME280;5025;48.890;9.278;2023-01-28T10:54:23;99670.25;;;2.17;82.62
9969;BME280;5025;48.890;9.278;2023-01-28T10:56:57;99676.78;;;2.22;82.58
9969;BME280;5025;48.890;9.278;2023-01-28T10:59:31;99674.81;;;2.24;82.46
9969;BME280;5025;48.890;9.278;2023-01-28T11:02:00;99675.34;;;2.28;82.22
9969;BME280;5025;48.890;9.278;2023-01-28T11:04:31;99676.03;;;2.30;82.35
9969;BME280;5025;48.890;9.278;2023-01-28T11:07:17;99677.72;;;2.31;82.32
9969;BME280;5025;48.890;9.278;2023-01-28T11:09:48;99676.84;;;2.30;82.38
9969;BME280;5025;48.890;9.278;2023-01-28T11:12:25;99682.59;;;2.36;82.15
9969;BME280;5025;48.890;9.278;2023-01-28T11:14:54;99683.41;;;2.36;82.23
9969;BME280;5025;48.890;9.278;2023-01-28T11:17:22;99679.06;;;2.35;82.27
9969;BME280;5025;48.890;9.278;2023-01-28T11:19:54;99677.56;;;2.32;82.16
9969;BME280;5025;48.890;9.278;2023-01-28T11:22:32;99673.72;;;2.35;82.14
9969;BME280;5025;48.890;9.278;2023-01-28T11:25:25;99685.78;;;2.39;82.06
9969;BME280;5025;48.890;9.278;2023-01-28T11:27:52;99692.09;;;2.38;81.89
9969;BME280;5025;48.890;9.278;2023-01-28T11:30:24;99675.25;;;2.38;81.99
9969;BME280;5025;48.890;9.278;2023-01-28T11:35:29;99685.09;;;2.37;81.83
9969;BME280;5025;48.890;9.278;2023-01-28T11:37:59;99681.28;;;2.40;81.85
9969;BME280;5025;48.890;9.278;2023-01-28T11:40:25;99680.75;;;2.36;81.70
9969;BME280;5025;48.890;9.278;2023-01-28T11:42:52;99682.28;;;2.39;81.62
9969;BME280;5025;48.890;9.278;2023-01-28T11:45:22;99675.25;;;2.38;81.62
9969;BME280;5025;48.890;9.278;2023-01-28T11:48:13;99680.59;;;2.38;81.37
9969;BME280;5025;48.890;9.278;2023-01-28T11:50:50;99671.22;;;2.33;81.55
9969;BME280;5025;48.890;9.278;2023-01-28T11:53:49;99682.59;;;2.36;81.54
9969;BME280;5025;48.890;9.278;2023-01-28T12:08:33;99682.75;;;2.34;81.18
9969;BME280;5025;48.890;9.278;2023-01-28T12:14:27;99693.56;;;2.32;81.09
9969;BME280;5025;48.890;9.278;2023-01-28T12:19:50;99691.56;;;2.35;80.97
9969;BME280;5025;48.890;9.278;2023-01-28T12:30:59;99690.03;;;2.32;80.72
9969;BME280;5025;48.890;9.278;2023-01-28T12:36:32;99695.22;;;2.33;80.57
9969;BME280;5025;48.890;9.278;2023-01-28T12:41:47;99689.19;;;2.31;80.72
9969;BME280;5025;48.890;9.278;2023-01-28T12:44:37;99689.19;;;2.31;80.62
9969;BME280;5025;48.890;9.278;2023-01-28T12:47:12;99682.19;;;2.30;80.56
9969;BME280;5025;48.890;9.278;2023-01-28T12:49:50;99682.91;;;2.32;80.81
9969;BME280;5025;48.890;9.278;2023-01-28T12:52:21;99676.50;;;2.25;80.77
9969;BME280;5025;48.890;9.278;2023-01-28T12:54:58;99674.50;;;2.27;80.87
9969;BME280;5025;48.890;9.278;2023-01-28T12:57:31;99674.13;;;2.22;80.93
9969;BME280;5025;48.890;9.278;2023-01-28T13:02:49;99675.09;;;2.21;81.16
9969;BME280;5025;48.890;9.278;2023-01-28T13:05:19;99667.97;;;2.22;81.06
9969;BME280;5025;48.890;9.278;2023-01-28T13:08:00;99669.31;;;2.26;80.99
9969;BME280;5025;48.890;9.278;2023-01-28T13:10:30;99672.13;;;2.24;81.22
9969;BME280;5025;48.890;9.278;2023-01-28T13:12:59;99672.84;;;2.26;81.16
9969;BME280;5025;48.890;9.278;2023-01-28T13:15:24;99666.81;;;2.24;81.09
9969;BME280;5025;48.890;9.278;2023-01-28T13:17:58;99670.34;;;2.25;81.33
9969;BME280;5025;48.890;9.278;2023-01-28T13:20:48;99679.97;;;2.26;81.21
9969;BME280;5025;48.890;9.278;2023-01-28T13:23:36;99672.84;;;2.26;81.23
9969;BME280;5025;48.890;9.278;2023-01-28T13:28:50;99674.34;;;2.29;81.35
9969;BME280;5025;48.890;9.278;2023-01-28T13:31:18;99681.50;;;2.28;81.34
9969;BME280;5025;48.890;9.278;2023-01-28T13:36:33;99677.56;;;2.32;81.44
9969;BME280;5025;48.890;9.278;2023-01-28T13:41:41;99686.91;;;2.37;81.39
9969;BME280;5025;48.890;9.278;2023-01-28T13:46:57;99682.81;;;2.42;81.44
9969;BME280;5025;48.890;9.278;2023-01-28T13:49:35;99678.28;;;2.43;81.34
9969;BME280;5025;48.890;9.278;2023-01-28T13:54:57;99689.81;;;2.43;81.48
9969;BME280;5025;48.890;9.278;2023-01-28T13:58:07;99687.16;;;2.43;81.54
9969;BME280;5025;48.890;9.278;2023-01-28T14:03:52;99682.81;;;2.42;81.36
9969;BME280;5025;48.890;9.278;2023-01-28T14:09:43;99695.31;;;2.42;81.33
9969;BME280;5025;48.890;9.278;2023-01-28T14:12:24;99699.63;;;2.43;81.24
9969;BME280;5025;48.890;9.278;2023-01-28T14:17:53;99704.94;;;2.43;81.14
9969;BME280;5025;48.890;9.278;2023-01-28T14:20:32;99699.63;;;2.43;81.16
9969;BME280;5025;48.890;9.278;2023-01-28T14:23:12;99711.13;;;2.43;81.18
9969;BME280;5025;48.890;9.278;2023-01-28T14:28:27;99715.63;;;2.43;81.10
9969;BME280;5025;48.890;9.278;2023-01-28T14:33:39;99719.13;;;2.43;81.06
9969;BME280;5025;48.890;9.278;2023-01-28T14:36:05;99720.94;;;2.43;80.85
9969;BME280;5025;48.890;9.278;2023-01-28T14:38:40;99715.63;;;2.43;80.97
9969;BME280;5025;48.890;9.278;2023-01-28T14:41:08;99727.00;;;2.45;80.97
9969;BME280;5025;48.890;9.278;2023-01-28T14:43:35;99727.97;;;2.44;80.84
9969;BME280;5025;48.890;9.278;2023-01-28T14:58:31;99736.63;;;2.46;80.58
9969;BME280;5025;48.890;9.278;2023-01-28T15:00:59;99732.47;;;2.43;80.69
9969;BME280;5025;48.890;9.278;2023-01-28T15:03:26;99741.44;;;2.42;80.49
9969;BME280;5025;48.890;9.278;2023-01-28T15:06:22;99736.94;;;2.43;80.50
9969;BME280;5025;48.890;9.278;2023-01-28T15:08:51;99748.78;;;2.40;80.45
9969;BME280;5025;48.890;9.278;2023-01-28T15:11:24;99752.09;;;2.42;80.30
9969;BME280;5025;48.890;9.278;2023-01-28T15:13:53;99756.63;;;2.42;80.33
9969;BME280;5025;48.890;9.278;2023-01-28T15:16:25;99756.63;;;2.42;80.31
9969;BME280;5025;48.890;9.278;2023-01-28T15:18:56;99763.59;;;2.43;80.11
9969;BME280;5025;48.890;9.278;2023-01-28T15:21:25;99764.75;;;2.40;80.14
9969;BME280;5025;48.890;9.278;2023-01-28T15:23:54;99757.91;;;2.38;80.08
9969;BME280;5025;48.890;9.278;2023-01-28T15:26:23;99759.59;;;2.39;79.87
9969;BME280;5025;48.890;9.278;2023-01-28T15:28:49;99766.72;;;2.38;80.03
9969;BME280;5025;48.890;9.278;2023-01-28T15:31:22;99769.53;;;2.37;80.02